createdAt,value
2022-08-10T00:00:45.696Z,102139.79
2022-08-10T00:06:08.197Z,102129.51
2022-08-10T00:11:30.910Z,102143.88
2022-08-10T00:16:53.157Z,102142.14
2022-08-10T00:22:17.008Z,102146.80
2022-08-10T00:27:52.984Z,102139.98
2022-08-10T00:33:04.502Z,102146.59
2022-08-10T00:38:26.702Z,102143.59
2022-08-10T00:43:49.997Z,102147.27
2022-08-10T00:49:12.738Z,102143.13
2022-08-10T00:54:36.468Z,102144.91
2022-08-10T01:00:00.540Z,102140.90
2022-08-10T01:05:26.005Z,102152.05
2022-08-10T01:12:39.464Z,102147.84
2022-08-10T01:16:50.885Z,102144.16
2022-08-10T01:22:33.117Z,102151.07
2022-08-10T01:28:09.300Z,102155.05
2022-08-10T01:34:02.447Z,102151.87
2022-08-10T01:39:07.151Z,102161.91
2022-08-10T01:44:43.847Z,102143.78
2022-08-10T01:50:14.181Z,102148.53
2022-08-10T01:55:38.295Z,102145.63
2022-08-10T02:01:03.566Z,102145.98
2022-08-10T02:06:27.730Z,102146.95
2022-08-10T02:12:06.675Z,102149.11
2022-08-10T02:17:57.470Z,102144.00
2022-08-10T02:22:52.700Z,102138.84
2022-08-10T02:28:27.481Z,102139.78
2022-08-10T02:33:57.366Z,102140.28
2022-08-10T02:39:16.484Z,102146.27
2022-08-10T02:45:20.367Z,102144.94
2022-08-10T02:50:42.582Z,102146.48
2022-08-10T02:56:27.249Z,102138.11
2022-08-10T03:01:54.875Z,102134.25
2022-08-10T03:07:43.535Z,102139.30
2022-08-10T03:12:49.197Z,102148.55
2022-08-10T03:18:13.530Z,102153.08
2022-08-10T03:23:38.649Z,102155.67
2022-08-10T03:29:03.452Z,102157.50
2022-08-10T03:34:33.626Z,102158.84
2022-08-10T03:39:51.648Z,102163.17
2022-08-10T03:45:16.530Z,102161.81
2022-08-10T03:50:51.323Z,102160.63
2022-08-10T03:56:28.909Z,102167.52
2022-08-10T04:02:43.491Z,102167.19
2022-08-10T04:06:57.684Z,102181.45
2022-08-10T04:12:20.834Z,102177.78
2022-08-10T04:18:03.208Z,102178.47
2022-08-10T04:23:15.412Z,102183.27
2022-08-10T04:28:39.540Z,102184.28
2022-08-10T04:34:08.858Z,102185.17
2022-08-10T04:39:30.184Z,102187.72
2022-08-10T04:44:55.367Z,102185.59
2022-08-10T04:50:18.106Z,102195.67
2022-08-10T04:55:40.469Z,102183.88
2022-08-10T05:01:02.819Z,102196.11
2022-08-10T05:06:25.786Z,102187.38
2022-08-10T05:11:48.052Z,102186.30
2022-08-10T05:17:10.728Z,102192.00
2022-08-10T05:22:33.450Z,102195.45
2022-08-10T05:27:57.828Z,102203.22
2022-08-10T05:33:20.346Z,102204.40
2022-08-10T05:38:45.302Z,102211.94
2022-08-10T05:44:09.122Z,102212.42
2022-08-10T05:49:31.302Z,102208.28
2022-08-10T05:54:53.665Z,102209.11
2022-08-10T06:00:36.241Z,102208.95
2022-08-10T06:05:47.762Z,102208.16
2022-08-10T06:12:24.408Z,102212.31
2022-08-10T06:17:35.267Z,102211.39
2022-08-10T06:45:20.355Z,102227.48
2022-08-10T06:51:12.111Z,102229.34
2022-08-10T06:56:55.776Z,102226.61
2022-08-10T07:02:23.577Z,102218.75
2022-08-10T07:14:18.367Z,102188.17
2022-08-10T07:19:50.495Z,102200.27
2022-08-10T07:25:35.422Z,102219.78
2022-08-10T07:31:34.825Z,102230.25
2022-08-10T09:04:59.913Z,102204.80
2022-08-10T09:11:02.841Z,102212.57
2022-08-10T09:17:04.912Z,102193.48
2022-08-10T09:22:32.715Z,102196.20
2022-08-10T09:28:09.713Z,102191.67
2022-08-10T09:36:21.410Z,102183.45
2022-08-10T09:40:12.573Z,102179.64
2022-08-10T09:52:18.363Z,102137.92
2022-08-10T09:58:35.766Z,102137.92
2022-08-10T10:04:17.984Z,102155.23
2022-08-10T10:09:47.948Z,102155.44
2022-08-10T10:15:33.299Z,102156.29
2022-08-10T10:21:54.810Z,102151.80
2022-08-10T10:27:16.230Z,102154.27
2022-08-10T10:32:58.130Z,102142.97
2022-08-10T10:38:22.132Z,102139.00
2022-08-10T10:50:06.541Z,102117.55
2022-08-10T10:56:15.516Z,102120.95
2022-08-10T11:01:43.295Z,102121.16
2022-08-10T11:07:34.639Z,102119.14
2022-08-10T11:14:24.409Z,102118.81
2022-08-10T11:19:16.241Z,102114.86
2022-08-10T11:30:36.215Z,102098.02
2022-08-10T11:36:13.240Z,102097.20
2022-08-10T11:42:09.033Z,102085.77
2022-08-10T11:47:21.700Z,102087.47
2022-08-10T11:53:08.697Z,102082.80
2022-08-10T11:58:54.143Z,102085.27
2022-08-10T12:04:22.409Z,102080.09
2022-08-10T12:10:08.982Z,102077.06
2022-08-10T12:15:37.167Z,102075.64
2022-08-10T12:21:04.634Z,102074.94
2022-08-10T12:26:58.361Z,102081.33
2022-08-10T12:32:38.003Z,102069.09
2022-08-10T12:38:12.015Z,102071.95
2022-08-10T12:44:06.278Z,102071.99
2022-08-10T12:49:37.888Z,102057.80
2022-08-10T12:55:04.105Z,102040.97
2022-08-10T13:00:27.387Z,102029.91
2022-08-10T13:05:57.538Z,102040.47
2022-08-10T13:12:36.581Z,102032.88
2022-08-10T13:16:49.316Z,102022.36
2022-08-10T13:22:14.114Z,102022.77
2022-08-10T13:28:02.698Z,102011.52
2022-08-10T13:33:10.412Z,102005.77
2022-08-10T13:38:35.015Z,102003.66
2022-08-10T13:44:04.972Z,102000.63
2022-08-10T13:49:30.052Z,102004.27
2022-08-10T13:54:58.942Z,101992.07
2022-08-10T14:00:34.533Z,101993.46
2022-08-10T14:05:59.505Z,101984.20
2022-08-10T14:11:25.902Z,101982.96
2022-08-10T14:16:50.990Z,101974.05
2022-08-10T14:22:15.088Z,101960.13
2022-08-10T14:28:02.284Z,101957.30
2022-08-10T14:33:06.338Z,101948.20
2022-08-10T14:38:34.436Z,101951.14
2022-08-10T14:44:05.630Z,101946.52
2022-08-10T14:49:30.142Z,101949.81
2022-08-10T14:54:57.606Z,101950.08
2022-08-10T15:00:30.876Z,101947.72
2022-08-10T15:05:47.504Z,101947.28
2022-08-10T15:12:12.316Z,101936.71
2022-08-10T15:16:48.258Z,101925.83
2022-08-10T15:22:36.609Z,101919.87
2022-08-10T15:27:56.420Z,101916.62
2022-08-10T15:33:57.557Z,101920.09
2022-08-10T15:39:17.298Z,101913.94
2022-08-10T15:44:43.241Z,101907.38
2022-08-10T15:50:22.834Z,101903.58
2022-08-10T15:55:55.331Z,101900.30
2022-08-10T16:02:13.811Z,101896.77
2022-08-10T16:07:06.188Z,101910.25
2022-08-10T16:12:43.047Z,101908.82
2022-08-10T16:18:21.524Z,101899.63
2022-08-10T16:24:15.417Z,101894.86
2022-08-10T16:29:20.664Z,101895.64
2022-08-10T16:34:46.078Z,101897.28
2022-08-10T16:40:14.977Z,101900.02
2022-08-10T16:45:45.234Z,101898.78
2022-08-10T16:51:14.821Z,101893.25
2022-08-10T16:56:48.636Z,101891.09
2022-08-10T17:02:07.169Z,101887.05
2022-08-10T17:07:33.780Z,101879.61
2022-08-10T17:13:00.095Z,101882.11
2022-08-10T17:18:30.688Z,101886.38
2022-08-10T17:23:57.309Z,101889.53
2022-08-10T17:29:58.484Z,101884.05
2022-08-10T17:34:58.245Z,101884.80
2022-08-10T17:40:30.511Z,101876.03
2022-08-10T17:45:54.348Z,101885.97
2022-08-10T17:51:20.648Z,101882.14
2022-08-10T17:56:46.164Z,101884.77
2022-08-10T18:02:17.599Z,101886.97
2022-08-10T18:07:47.267Z,101878.83
2022-08-10T18:13:15.824Z,101885.11
2022-08-10T18:18:41.073Z,101888.83
2022-08-10T18:24:14.174Z,101890.14
2022-08-10T18:29:37.315Z,101896.39
2022-08-10T18:35:04.369Z,101895.36
2022-08-10T18:40:36.046Z,101898.09
2022-08-10T18:45:57.374Z,101902.86
2022-08-10T18:51:24.327Z,101903.13
2022-08-10T18:57:11.196Z,101915.97
2022-08-10T19:03:08.787Z,101928.02
2022-08-10T19:09:46.756Z,101938.53
2022-08-10T19:14:54.725Z,101954.63
2022-08-10T19:20:49.224Z,101954.09
2022-08-10T19:26:45.988Z,101958.83
2022-08-10T19:32:33.821Z,101959.56
2022-08-10T19:38:33.288Z,101972.96
2022-08-10T19:44:02.603Z,101959.89
2022-08-10T19:49:51.245Z,101962.34
2022-08-10T19:55:20.930Z,101955.62
2022-08-10T20:00:40.328Z,101950.73
2022-08-10T20:06:22.792Z,101967.64
2022-08-10T20:12:07.868Z,101968.50
2022-08-10T20:17:55.701Z,101968.22
2022-08-10T20:23:28.193Z,101970.16
2022-08-10T20:29:57.417Z,101963.11
2022-08-10T20:34:55.662Z,101977.42
2022-08-10T20:40:25.947Z,101965.92
2022-08-10T20:46:14.203Z,101963.60
2022-08-10T20:51:58.937Z,101970.11
2022-08-10T20:57:56.492Z,101970.93
2022-08-10T21:03:33.701Z,101970.16
2022-08-10T21:09:15.367Z,101968.64
2022-08-10T21:15:08.950Z,101972.52
2022-08-10T21:20:54.563Z,101964.52
2022-08-10T21:26:32.727Z,101966.18
2022-08-10T21:32:18.379Z,101954.52
2022-08-10T21:37:58.671Z,101962.09
2022-08-10T21:43:53.246Z,101958.81
2022-08-10T21:50:07.223Z,101964.30
2022-08-10T21:56:03.078Z,101968.93
2022-08-10T22:08:01.600Z,101968.52
2022-08-10T22:13:48.225Z,101975.08
2022-08-10T22:19:31.962Z,101976.69
2022-08-10T22:25:23.297Z,101983.86
2022-08-10T22:31:32.361Z,101986.80
2022-08-10T22:37:24.459Z,101974.09
2022-08-10T22:43:35.164Z,101971.27
2022-08-10T22:49:01.408Z,101974.23
2022-08-10T22:55:03.847Z,101971.15
2022-08-10T23:00:32.533Z,101962.64
2022-08-10T23:06:15.432Z,101964.00
2022-08-10T23:11:45.633Z,101961.85
2022-08-10T23:18:01.072Z,101951.80
2022-08-10T23:23:07.454Z,101954.86
2022-08-10T23:28:55.451Z,101951.75
2022-08-10T23:33:53.958Z,101951.13
2022-08-10T23:39:27.058Z,101955.12
2022-08-10T23:44:50.062Z,101951.91
2022-08-10T23:50:16.885Z,101955.81
2022-08-10T23:55:49.422Z,101957.54
